createdAt,value
2023-04-08T00:01:17.471Z,24.40
2023-04-08T00:03:43.860Z,24.52
2023-04-08T00:06:10.454Z,22.15
2023-04-08T00:08:36.729Z,23.85
2023-04-08T00:11:03.068Z,22.63
2023-04-08T00:13:29.383Z,23.88
2023-04-08T00:15:55.937Z,25.52
2023-04-08T00:18:22.207Z,24.00
2023-04-08T00:20:48.440Z,24.00
2023-04-08T00:23:14.836Z,24.55
2023-04-08T00:25:41.172Z,22.33
2023-04-08T00:28:07.551Z,24.88
2023-04-08T00:30:33.956Z,25.90
2023-04-08T00:33:00.337Z,25.65
2023-04-08T00:35:26.780Z,24.00
2023-04-08T00:37:53.100Z,23.30
2023-04-08T00:40:19.415Z,26.70
2023-04-08T00:42:45.665Z,24.90
2023-04-08T00:45:12.041Z,23.73
2023-04-08T00:47:38.437Z,23.85
2023-04-08T00:50:04.892Z,23.13
2023-04-08T00:52:31.309Z,21.15
2023-04-08T00:54:57.602Z,24.50
2023-04-08T00:57:23.906Z,21.92
2023-04-08T00:59:50.401Z,22.77
2023-04-08T01:02:26.960Z,25.35
2023-04-08T01:05:02.200Z,23.25
2023-04-08T01:07:32.384Z,21.90
2023-04-08T01:10:01.990Z,21.80
2023-04-08T01:12:32.257Z,21.80
2023-04-08T01:15:08.110Z,22.75
2023-04-08T01:17:35.814Z,19.65
2023-04-08T01:20:04.070Z,21.70
2023-04-08T01:22:48.836Z,21.13
2023-04-08T01:25:17.197Z,18.42
2023-04-08T01:27:43.729Z,16.80
2023-04-08T01:30:10.911Z,21.73
2023-04-08T01:32:38.175Z,23.20
2023-04-08T01:35:05.242Z,20.13
2023-04-08T01:37:32.964Z,21.73
2023-04-08T01:40:00.581Z,22.13
2023-04-08T01:42:28.501Z,20.92
2023-04-08T01:44:56.118Z,23.90
2023-04-08T01:47:22.833Z,23.65
2023-04-08T01:49:50.274Z,22.48
2023-04-08T01:52:18.307Z,21.17
2023-04-08T01:54:44.626Z,19.50
2023-04-08T01:57:12.869Z,18.95
2023-04-08T01:59:40.228Z,18.52
2023-04-08T02:02:08.650Z,18.23
2023-04-08T02:04:35.663Z,17.67
2023-04-08T02:07:02.682Z,20.60
2023-04-08T02:09:29.575Z,19.92
2023-04-08T02:11:57.748Z,20.17
2023-04-08T02:14:24.066Z,22.23
2023-04-08T02:16:53.444Z,20.70
2023-04-08T02:19:25.793Z,24.83
2023-04-08T02:21:55.342Z,20.48
2023-04-08T02:24:22.088Z,25.20
2023-04-08T02:26:50.520Z,20.92
2023-04-08T02:29:17.178Z,25.98
2023-04-08T02:31:43.889Z,23.00
2023-04-08T02:34:10.610Z,22.58
2023-04-08T02:36:37.415Z,19.08
2023-04-08T02:39:03.824Z,17.75
2023-04-08T02:41:30.680Z,19.08
2023-04-08T02:43:57.141Z,18.55
2023-04-08T02:46:23.529Z,18.60
2023-04-08T02:48:50.293Z,19.15
2023-04-08T02:51:16.684Z,16.63
2023-04-08T02:53:42.916Z,19.75
2023-04-08T02:56:12.445Z,17.38
2023-04-08T02:58:38.797Z,18.67
2023-04-08T03:01:05.571Z,16.35
2023-04-08T03:03:32.201Z,20.38
2023-04-08T03:05:58.846Z,28.95
2023-04-08T03:08:25.811Z,17.63
2023-04-08T03:10:52.106Z,18.25
2023-04-08T03:13:18.396Z,19.48
2023-04-08T03:15:44.810Z,20.80
2023-04-08T03:18:11.452Z,18.48
2023-04-08T03:20:37.736Z,18.55
2023-04-08T03:23:04.027Z,16.45
2023-04-08T03:25:31.537Z,18.38
2023-04-08T03:27:58.549Z,17.48
2023-04-08T03:30:24.983Z,19.27
2023-04-08T03:32:51.485Z,19.30
2023-04-08T03:35:17.810Z,16.40
2023-04-08T03:37:44.178Z,17.98
2023-04-08T03:40:11.043Z,16.63
2023-04-08T03:42:37.367Z,16.42
2023-04-08T03:45:03.874Z,18.98
2023-04-08T03:47:30.708Z,20.20
2023-04-08T03:49:57.028Z,18.40
2023-04-08T03:52:24.946Z,19.30
2023-04-08T03:54:51.318Z,18.20
2023-04-08T03:57:17.675Z,23.63
2023-04-08T03:59:43.967Z,18.10
2023-04-08T04:02:10.373Z,21.77
2023-04-08T04:04:37.100Z,22.90
2023-04-08T04:07:03.460Z,24.17
2023-04-08T04:09:29.822Z,19.45
2023-04-08T04:11:56.105Z,19.73
2023-04-08T04:14:22.347Z,19.38
2023-04-08T04:16:48.564Z,18.98
2023-04-08T04:19:14.849Z,19.38
2023-04-08T04:21:41.173Z,19.92
2023-04-08T04:24:07.468Z,21.77
2023-04-08T04:26:33.765Z,20.13
2023-04-08T04:29:00.231Z,20.33
2023-04-08T04:31:26.823Z,19.33
2023-04-08T04:33:53.206Z,20.05
2023-04-08T04:36:19.687Z,19.80
2023-04-08T04:38:46.842Z,18.80
2023-04-08T04:41:14.571Z,19.58
2023-04-08T04:43:41.122Z,17.70
2023-04-08T04:46:09.111Z,22.05
2023-04-08T04:48:35.843Z,20.83
2023-04-08T04:51:05.097Z,21.65
2023-04-08T04:53:31.631Z,19.48
2023-04-08T04:55:58.143Z,20.15
2023-04-08T04:58:24.824Z,18.92
2023-04-08T05:00:51.146Z,19.48
2023-04-08T05:03:17.491Z,19.55
2023-04-08T05:05:43.750Z,20.70
2023-04-08T05:08:10.203Z,19.77
2023-04-08T05:10:36.504Z,22.67
2023-04-08T05:13:02.818Z,19.85
2023-04-08T05:15:29.061Z,20.15
2023-04-08T05:17:55.390Z,19.15
2023-04-08T05:20:21.722Z,18.77
2023-04-08T05:22:49.214Z,18.52
2023-04-08T05:25:15.578Z,27.75
2023-04-08T05:27:41.947Z,18.63
2023-04-08T05:30:08.867Z,21.35
2023-04-08T05:32:35.546Z,19.63
2023-04-08T05:35:02.673Z,21.35
2023-04-08T05:37:29.249Z,20.77
2023-04-08T05:39:55.495Z,20.55
2023-04-08T05:42:21.820Z,28.40
2023-04-08T05:44:48.128Z,24.45
2023-04-08T05:47:14.892Z,20.73
2023-04-08T05:49:41.782Z,21.90
2023-04-08T05:52:08.051Z,17.58
2023-04-08T05:54:34.284Z,17.38
2023-04-08T05:57:00.559Z,19.25
2023-04-08T05:59:26.841Z,18.13
2023-04-08T06:01:55.163Z,18.70
2023-04-08T06:04:21.673Z,17.15
2023-04-08T06:06:48.046Z,17.98
2023-04-08T06:09:14.451Z,16.45
2023-04-08T06:11:40.695Z,14.90
2023-04-08T06:14:06.971Z,14.23
2023-04-08T06:16:33.474Z,13.32
2023-04-08T06:18:59.794Z,13.05
2023-04-08T06:21:26.583Z,12.23
2023-04-08T06:23:52.913Z,11.23
2023-04-08T06:26:19.278Z,12.10
2023-04-08T06:28:45.723Z,12.50
2023-04-08T06:31:12.071Z,12.20
2023-04-08T06:33:38.328Z,12.50
2023-04-08T06:36:05.069Z,13.27
2023-04-08T06:38:32.116Z,13.45
2023-04-08T06:41:04.937Z,13.80
2023-04-08T06:43:31.830Z,13.60
2023-04-08T06:45:58.263Z,14.13
2023-04-08T06:48:28.505Z,12.98
2023-04-08T06:50:55.870Z,12.35
2023-04-08T06:53:23.177Z,11.95
2023-04-08T06:55:49.565Z,10.82
2023-04-08T06:58:15.873Z,12.45
2023-04-08T07:00:42.449Z,12.05
2023-04-08T07:03:08.844Z,12.00
2023-04-08T07:05:38.564Z,13.55
2023-04-08T07:08:05.658Z,13.05
2023-04-08T07:10:32.160Z,15.75
2023-04-08T07:12:58.432Z,16.08
2023-04-08T07:15:24.666Z,14.55
2023-04-08T07:17:51.686Z,13.73
2023-04-08T07:20:18.275Z,12.50
2023-04-08T07:22:44.953Z,12.70
2023-04-08T07:25:11.265Z,12.82
2023-04-08T07:27:37.593Z,10.77
2023-04-08T07:30:04.046Z,10.98
2023-04-08T07:32:30.568Z,11.10
2023-04-08T07:34:56.815Z,10.73
2023-04-08T07:37:23.098Z,10.73
2023-04-08T07:39:49.396Z,10.73
2023-04-08T07:42:15.891Z,10.40
2023-04-08T07:44:42.148Z,10.80
2023-04-08T07:47:09.144Z,10.38
2023-04-08T07:49:35.444Z,10.07
2023-04-08T07:52:01.866Z,10.60
2023-04-08T07:54:28.244Z,11.55
2023-04-08T07:56:54.548Z,10.15
2023-04-08T07:59:20.965Z,10.27
2023-04-08T08:01:47.339Z,10.13
2023-04-08T08:04:14.241Z,10.07
2023-04-08T08:06:40.906Z,10.38
2023-04-08T08:09:07.213Z,9.85
2023-04-08T08:11:33.558Z,10.82
2023-04-08T08:13:59.934Z,10.25
2023-04-08T08:16:29.682Z,9.50
2023-04-08T08:18:56.043Z,10.27
2023-04-08T08:21:22.342Z,9.93
2023-04-08T08:23:48.730Z,10.40
2023-04-08T08:26:15.161Z,10.30
2023-04-08T08:28:41.669Z,10.43
2023-04-08T08:31:08.377Z,10.60
2023-04-08T08:33:34.803Z,10.25
2023-04-08T08:36:01.611Z,8.40
2023-04-08T08:38:27.976Z,8.07
2023-04-08T08:40:56.108Z,7.22
2023-04-08T08:43:22.827Z,6.60
2023-04-08T08:45:49.086Z,6.57
2023-04-08T08:48:15.343Z,7.68
2023-04-08T08:50:41.631Z,7.43
2023-04-08T08:53:07.925Z,6.43
2023-04-08T08:55:50.800Z,6.78
2023-04-08T08:58:20.719Z,6.60
2023-04-08T09:00:47.054Z,7.53
2023-04-08T09:03:16.425Z,6.85
2023-04-08T09:05:49.995Z,6.57
2023-04-08T09:08:45.911Z,7.10
2023-04-08T09:11:18.152Z,6.80
2023-04-08T09:13:45.278Z,7.22
2023-04-08T09:16:18.392Z,7.47
2023-04-08T09:18:47.322Z,7.25
2023-04-08T09:21:14.425Z,7.65
2023-04-08T09:23:48.019Z,8.00
2023-04-08T09:26:19.445Z,8.43
2023-04-08T09:28:57.799Z,7.45
2023-04-08T09:31:28.161Z,7.65
2023-04-08T09:36:20.945Z,7.95
2023-04-08T09:38:47.823Z,8.40
2023-04-08T09:41:16.194Z,8.60
2023-04-08T09:43:54.245Z,7.53
2023-04-08T09:46:32.332Z,7.70
2023-04-08T09:49:04.214Z,8.23
2023-04-08T09:51:33.564Z,8.38
2023-04-08T09:54:01.497Z,8.88
2023-04-08T09:56:30.922Z,9.30
2023-04-08T09:59:01.863Z,8.35
2023-04-08T10:01:44.929Z,9.20
2023-04-08T10:04:14.564Z,8.32
2023-04-08T10:06:41.200Z,9.27
2023-04-08T10:09:07.678Z,7.85
2023-04-08T10:11:34.586Z,7.50
2023-04-08T10:14:01.409Z,7.30
2023-04-08T10:16:28.241Z,7.43
2023-04-08T10:18:58.081Z,8.18
2023-04-08T10:21:33.377Z,7.90
2023-04-08T10:24:01.449Z,7.45
2023-04-08T10:26:33.384Z,7.68
2023-04-08T10:29:22.811Z,7.50
2023-04-08T10:31:50.616Z,8.35
2023-04-08T10:34:27.498Z,7.07
2023-04-08T10:36:55.688Z,6.80
2023-04-08T10:39:22.337Z,6.25
2023-04-08T10:41:50.007Z,7.30
2023-04-08T10:44:16.920Z,6.53
2023-04-08T10:46:43.661Z,6.80
2023-04-08T10:49:09.988Z,7.47
2023-04-08T10:51:36.254Z,6.70
2023-04-08T10:54:07.246Z,6.80
2023-04-08T10:56:34.248Z,6.47
2023-04-08T10:59:00.507Z,6.35
2023-04-08T11:01:27.605Z,6.90
2023-04-08T11:03:54.041Z,7.15
2023-04-08T11:06:20.710Z,6.80
2023-04-08T11:08:47.301Z,6.80
2023-04-08T11:11:14.464Z,6.80
2023-04-08T11:13:52.050Z,6.55
2023-04-08T11:16:20.740Z,7.07
2023-04-08T11:18:47.851Z,6.75
2023-04-08T11:21:14.196Z,6.95
2023-04-08T11:23:42.206Z,6.70
2023-04-08T11:26:08.539Z,7.18
2023-04-08T11:28:35.617Z,7.53
2023-04-08T11:31:04.306Z,7.40
2023-04-08T11:33:31.113Z,7.55
2023-04-08T11:35:57.531Z,7.30
2023-04-08T11:38:24.745Z,6.95
2023-04-08T11:40:59.152Z,7.18
2023-04-08T11:43:26.371Z,7.00
2023-04-08T11:45:52.794Z,7.65
2023-04-08T11:48:19.339Z,7.47
2023-04-08T11:50:45.589Z,6.95
2023-04-08T11:53:19.765Z,7.43
2023-04-08T11:55:46.489Z,7.53
2023-04-08T11:58:12.887Z,6.93
2023-04-08T12:00:39.431Z,7.40
2023-04-08T12:03:06.484Z,7.28
2023-04-08T12:05:33.129Z,6.47
2023-04-08T12:07:59.407Z,6.82
2023-04-08T12:10:25.880Z,6.80
2023-04-08T12:12:52.179Z,6.47
2023-04-08T12:15:18.492Z,6.80
2023-04-08T12:17:44.883Z,6.47
2023-04-08T12:20:11.867Z,6.60
2023-04-08T12:22:38.486Z,5.60
2023-04-08T12:25:04.935Z,6.00
2023-04-08T12:27:33.460Z,6.65
2023-04-08T12:30:00.322Z,6.30
2023-04-08T12:32:26.883Z,6.40
2023-04-08T12:34:53.376Z,5.85
2023-04-08T12:37:20.941Z,6.03
2023-04-08T12:39:47.743Z,5.90
2023-04-08T12:42:14.297Z,5.30
2023-04-08T12:44:40.573Z,5.80
2023-04-08T12:47:06.984Z,5.55
2023-04-08T12:49:39.556Z,5.57
2023-04-08T12:52:13.403Z,5.87
2023-04-08T12:54:39.709Z,5.43
2023-04-08T12:57:05.996Z,5.05
2023-04-08T12:59:33.513Z,5.55
2023-04-08T13:01:59.825Z,4.82
2023-04-08T13:04:26.584Z,4.70
2023-04-08T13:06:53.013Z,4.15
2023-04-08T13:09:19.276Z,4.82
2023-04-08T13:11:45.792Z,3.90
2023-04-08T13:14:13.670Z,4.03
2023-04-08T13:16:40.095Z,4.78
2023-04-08T13:19:06.840Z,4.60
2023-04-08T13:21:33.152Z,4.80
2023-04-08T13:23:59.527Z,5.60
2023-04-08T13:26:26.683Z,5.57
2023-04-08T13:28:57.435Z,4.10
2023-04-08T13:31:24.654Z,4.90
2023-04-08T13:33:51.137Z,4.50
2023-04-08T13:36:17.565Z,5.07
2023-04-08T13:38:45.667Z,5.20
2023-04-08T13:41:12.057Z,4.55
2023-04-08T13:43:38.506Z,5.22
2023-04-08T13:46:04.882Z,4.80
2023-04-08T13:48:31.397Z,5.38
2023-04-08T13:50:57.720Z,4.70
2023-04-08T13:53:24.078Z,4.75
2023-04-08T13:55:54.917Z,5.40
2023-04-08T13:58:24.258Z,4.93
2023-04-08T14:00:53.672Z,5.85
2023-04-08T14:03:19.991Z,6.22
2023-04-08T14:05:46.521Z,5.05
2023-04-08T14:08:13.621Z,5.68
2023-04-08T14:10:40.700Z,4.57
2023-04-08T14:13:07.076Z,4.82
2023-04-08T14:15:33.338Z,5.38
2023-04-08T14:18:00.969Z,6.70
2023-04-08T14:20:27.305Z,5.53
2023-04-08T14:22:53.530Z,5.97
2023-04-08T14:25:19.769Z,5.32
2023-04-08T14:27:57.398Z,5.70
2023-04-08T14:30:24.548Z,5.88
2023-04-08T14:32:50.976Z,6.07
2023-04-08T14:35:17.522Z,6.00
2023-04-08T14:37:43.910Z,5.93
2023-04-08T14:40:10.492Z,6.20
2023-04-08T14:42:37.205Z,5.88
2023-04-08T14:45:03.821Z,5.65
2023-04-08T14:47:30.689Z,5.45
2023-04-08T14:49:56.940Z,5.60
2023-04-08T14:52:23.317Z,5.65
2023-04-08T14:54:49.671Z,5.40
2023-04-08T14:57:16.747Z,5.88
2023-04-08T14:59:43.909Z,5.68
2023-04-08T15:02:10.539Z,5.20
2023-04-08T15:04:36.898Z,5.10
2023-04-08T15:07:03.714Z,4.43
2023-04-08T15:09:30.384Z,4.57
2023-04-08T15:11:57.879Z,5.00
2023-04-08T15:14:24.244Z,4.80
2023-04-08T15:16:50.769Z,5.25
2023-04-08T15:19:19.780Z,5.55
2023-04-08T15:21:46.092Z,6.00
2023-04-08T15:24:12.870Z,5.80
2023-04-08T15:26:39.215Z,6.47
2023-04-08T15:29:05.616Z,6.10
2023-04-08T15:31:32.506Z,5.95
2023-04-08T15:33:58.833Z,6.55
2023-04-08T15:36:25.186Z,6.40
2023-04-08T15:38:52.751Z,6.68
2023-04-08T15:41:19.789Z,6.53
2023-04-08T15:43:46.196Z,5.82
2023-04-08T15:46:17.113Z,6.20
2023-04-08T15:48:43.350Z,6.60
2023-04-08T15:51:11.191Z,6.40
2023-04-08T15:53:37.472Z,6.30
2023-04-08T15:56:03.772Z,7.32
2023-04-08T15:58:30.171Z,7.05
2023-04-08T16:00:57.716Z,6.63
2023-04-08T16:03:24.504Z,6.57
2023-04-08T16:05:51.909Z,7.20
2023-04-08T16:08:18.186Z,6.60
2023-04-08T16:10:44.480Z,6.63
2023-04-08T16:13:10.797Z,6.80
2023-04-08T16:15:37.242Z,6.55
2023-04-08T16:18:04.389Z,6.63
2023-04-08T16:20:30.718Z,6.85
2023-04-08T16:22:57.136Z,7.10
2023-04-08T16:25:23.565Z,7.32
2023-04-08T16:27:50.019Z,7.00
2023-04-08T16:30:16.270Z,7.43
2023-04-08T16:32:42.660Z,7.18
2023-04-08T16:35:09.132Z,6.90
2023-04-08T16:37:35.513Z,8.32
2023-04-08T16:40:03.136Z,7.28
2023-04-08T16:42:29.630Z,7.78
2023-04-08T16:44:56.668Z,7.65
2023-04-08T16:47:23.246Z,7.88
2023-04-08T16:49:50.947Z,7.95
2023-04-08T16:52:17.414Z,8.30
2023-04-08T16:54:44.478Z,8.13
2023-04-08T16:57:10.748Z,9.05
2023-04-08T16:59:37.057Z,8.48
2023-04-08T17:02:03.517Z,8.45
2023-04-08T17:04:29.855Z,9.32
2023-04-08T17:06:57.152Z,9.75
2023-04-08T17:09:23.990Z,10.45
2023-04-08T17:11:50.404Z,11.48
2023-04-08T17:14:16.684Z,12.05
2023-04-08T17:16:43.086Z,12.13
2023-04-08T17:19:09.430Z,12.07
2023-04-08T17:21:35.928Z,12.73
2023-04-08T17:24:02.298Z,12.98
2023-04-08T17:26:29.303Z,13.15
2023-04-08T17:28:55.968Z,13.25
2023-04-08T17:31:22.450Z,13.35
2023-04-08T17:33:49.040Z,13.10
2023-04-08T17:36:17.428Z,14.05
2023-04-08T17:38:43.796Z,13.18
2023-04-08T17:41:12.588Z,14.02
2023-04-08T17:43:42.402Z,13.95
2023-04-08T17:46:08.706Z,13.68
2023-04-08T17:48:35.092Z,13.80
2023-04-08T17:51:02.505Z,14.07
2023-04-08T17:53:28.972Z,14.48
2023-04-08T17:55:55.310Z,14.00
2023-04-08T17:58:22.377Z,14.40
2023-04-08T18:00:48.991Z,12.65
2023-04-08T18:03:15.729Z,12.38
2023-04-08T18:05:42.320Z,12.55
2023-04-08T18:08:08.775Z,13.02
2023-04-08T18:10:36.545Z,13.05
2023-04-08T18:15:34.431Z,13.32
2023-04-08T18:18:00.730Z,13.52
2023-04-08T18:20:27.163Z,13.50
2023-04-08T18:22:53.441Z,13.35
2023-04-08T18:25:22.265Z,13.50
2023-04-08T18:27:48.841Z,12.85
2023-04-08T18:30:15.284Z,14.13
2023-04-08T18:32:41.523Z,13.15
2023-04-08T18:35:08.186Z,13.68
2023-04-08T18:37:34.606Z,13.23
2023-04-08T18:40:02.411Z,13.35
2023-04-08T18:42:28.734Z,14.02
2023-04-08T18:44:55.273Z,14.18
2023-04-08T18:47:21.796Z,14.40
2023-04-08T18:49:48.109Z,13.82
2023-04-08T18:52:14.462Z,14.77
2023-04-08T18:54:40.754Z,13.57
2023-04-08T18:57:07.033Z,15.02
2023-04-08T18:59:33.279Z,15.30
2023-04-08T19:01:59.751Z,14.45
2023-04-08T19:04:26.405Z,15.48
2023-04-08T19:06:52.805Z,16.05
2023-04-08T19:09:19.104Z,15.60
2023-04-08T19:11:45.524Z,16.20
2023-04-08T19:14:11.805Z,16.05
2023-04-08T19:16:40.782Z,15.90
2023-04-08T19:19:07.948Z,16.13
2023-04-08T19:21:37.505Z,15.50
2023-04-08T19:24:05.991Z,15.27
2023-04-08T19:26:33.197Z,15.27
2023-04-08T19:28:59.511Z,14.63
2023-04-08T19:31:25.882Z,14.45
2023-04-08T19:33:52.429Z,14.27
2023-04-08T19:36:18.896Z,14.07
2023-04-08T19:38:45.157Z,15.50
2023-04-08T19:41:11.396Z,14.32
2023-04-08T19:43:37.686Z,14.38
2023-04-08T19:46:03.988Z,14.57
2023-04-08T19:48:31.041Z,15.20
2023-04-08T19:50:57.406Z,15.27
2023-04-08T19:53:23.704Z,13.57
2023-04-08T19:55:50.004Z,14.55
2023-04-08T19:58:16.594Z,14.07
2023-04-08T20:00:42.929Z,15.05
2023-04-08T20:03:09.501Z,14.85
2023-04-08T20:05:36.559Z,15.10
2023-04-08T20:08:02.855Z,15.32
2023-04-08T20:10:29.178Z,15.02
2023-04-08T20:12:55.574Z,13.35
2023-04-08T20:15:25.074Z,15.43
2023-04-08T20:17:52.636Z,14.63
2023-04-08T20:20:19.135Z,14.70
2023-04-08T20:22:46.488Z,16.08
2023-04-08T20:25:12.852Z,16.17
2023-04-08T20:27:39.122Z,15.77
2023-04-08T20:30:06.219Z,16.85
2023-04-08T20:32:32.539Z,15.50
2023-04-08T20:34:59.804Z,16.30
2023-04-08T20:37:26.240Z,15.68
2023-04-08T20:39:52.645Z,16.67
2023-04-08T20:42:18.882Z,14.98
2023-04-08T20:44:45.404Z,16.30
2023-04-08T20:47:11.732Z,15.73
2023-04-08T20:49:40.988Z,15.27
2023-04-08T20:52:07.238Z,16.02
2023-04-08T20:54:33.562Z,16.30
2023-04-08T20:56:59.864Z,15.07
2023-04-08T20:59:26.152Z,15.00
2023-04-08T21:01:53.731Z,14.38
2023-04-08T21:04:20.766Z,16.38
2023-04-08T21:06:48.145Z,14.52
2023-04-08T21:09:14.932Z,16.27
2023-04-08T21:11:41.265Z,15.48
2023-04-08T21:14:07.583Z,15.98
2023-04-08T21:16:34.073Z,15.60
2023-04-08T21:19:03.896Z,15.77
2023-04-08T21:21:31.093Z,16.63
2023-04-08T21:23:57.542Z,15.32
2023-04-08T21:26:23.859Z,15.07
2023-04-08T21:28:51.049Z,15.05
2023-04-08T21:31:17.692Z,16.30
2023-04-08T21:33:43.968Z,17.60
2023-04-08T21:36:10.272Z,17.77
2023-04-08T21:38:36.696Z,18.00
2023-04-08T21:41:02.941Z,18.05
2023-04-08T21:43:29.348Z,19.13
2023-04-08T21:45:55.895Z,17.63
2023-04-08T21:48:23.351Z,17.92
2023-04-08T21:50:49.684Z,17.63
2023-04-08T21:53:16.689Z,16.70
2023-04-08T21:55:42.997Z,18.05
2023-04-08T21:58:12.016Z,17.17
2023-04-08T22:00:38.948Z,17.13
2023-04-08T22:03:07.022Z,18.35
2023-04-08T22:05:33.648Z,17.95
2023-04-08T22:08:00.036Z,18.63
2023-04-08T22:10:26.555Z,20.33
2023-04-08T22:12:52.830Z,20.35
2023-04-08T22:15:19.153Z,20.85
2023-04-08T22:17:46.109Z,21.77
2023-04-08T22:20:12.437Z,21.15
2023-04-08T22:22:38.685Z,25.05
2023-04-08T22:25:05.283Z,25.42
2023-04-08T22:27:31.994Z,24.52
2023-04-08T22:29:58.317Z,25.95
2023-04-08T22:32:24.640Z,26.38
2023-04-08T22:34:51.082Z,25.92
2023-04-08T22:37:17.720Z,26.38
2023-04-08T22:39:44.017Z,25.50
2023-04-08T22:42:10.306Z,25.25
2023-04-08T22:44:36.602Z,26.02
2023-04-08T22:47:02.870Z,24.67
2023-04-08T22:49:29.166Z,25.17
2023-04-08T22:51:55.408Z,25.70
2023-04-08T22:54:21.789Z,25.23
2023-04-08T22:56:48.084Z,24.90
2023-04-08T22:59:14.449Z,25.88
2023-04-08T23:01:41.601Z,24.50
2023-04-08T23:04:08.021Z,25.27
2023-04-08T23:06:34.326Z,26.30
2023-04-08T23:09:00.882Z,23.83
2023-04-08T23:11:27.168Z,25.02
2023-04-08T23:13:53.430Z,25.50
2023-04-08T23:16:19.708Z,24.23
2023-04-08T23:18:46.016Z,25.08
2023-04-08T23:21:12.293Z,25.67
2023-04-08T23:23:38.553Z,24.10
2023-04-08T23:26:04.963Z,25.00
2023-04-08T23:28:31.282Z,24.25
2023-04-08T23:30:57.684Z,25.25
2023-04-08T23:33:23.974Z,25.33
2023-04-08T23:35:50.553Z,25.20
2023-04-08T23:38:16.929Z,24.88
2023-04-08T23:40:43.212Z,24.80
2023-04-08T23:43:09.532Z,25.55
2023-04-08T23:45:35.797Z,25.85
2023-04-08T23:48:02.077Z,24.92
2023-04-08T23:50:28.394Z,27.13
2023-04-08T23:52:54.892Z,25.88
2023-04-08T23:55:21.200Z,24.73
2023-04-08T23:57:49.251Z,25.15
